createdAt,value
2023-02-27T00:01:36.078Z,2.88
2023-02-27T00:03:40.768Z,4.78
2023-02-27T00:05:40.673Z,5.26
2023-02-27T00:08:06.708Z,4.38
2023-02-27T00:10:24.967Z,3.36
2023-02-27T00:12:40.608Z,2.59
2023-02-27T00:14:51.783Z,2.03
2023-02-27T00:17:07.061Z,1.61
2023-02-27T00:19:21.591Z,2.61
2023-02-27T00:21:38.270Z,4.36
2023-02-27T00:23:57.092Z,5.43
2023-02-27T00:26:03.954Z,4.62
2023-02-27T00:28:17.745Z,3.52
2023-02-27T00:30:16.453Z,2.77
2023-02-27T00:32:30.362Z,2.21
2023-02-27T00:34:26.502Z,1.68
2023-02-27T00:36:31.867Z,2.21
2023-02-27T00:38:34.628Z,3.96
2023-02-27T00:40:28.230Z,5.30
2023-02-27T00:42:33.380Z,5.11
2023-02-27T00:44:38.646Z,4.11
2023-02-27T00:47:13.314Z,3.15
2023-02-27T00:49:25.327Z,2.37
2023-02-27T00:51:13.209Z,1.85
2023-02-27T00:53:08.780Z,1.74
2023-02-27T00:55:34.842Z,3.10
2023-02-27T00:57:40.429Z,5.12
2023-02-27T00:59:28.159Z,5.32
2023-02-27T01:01:33.290Z,4.45
2023-02-27T01:03:47.092Z,3.51
2023-02-27T01:05:41.084Z,2.76
2023-02-27T01:07:44.391Z,2.20
2023-02-27T01:09:36.887Z,1.78
2023-02-27T01:11:39.185Z,1.97
2023-02-27T01:13:53.707Z,3.69
2023-02-27T01:15:51.962Z,5.34
2023-02-27T01:17:49.154Z,5.29
2023-02-27T01:19:22.666Z,4.40
2023-02-27T01:21:19.060Z,3.70
2023-02-27T01:23:34.044Z,2.89
2023-02-27T01:25:49.926Z,2.30
2023-02-27T01:27:55.061Z,1.83
2023-02-27T01:30:01.095Z,2.55
2023-02-27T01:32:00.238Z,4.42
2023-02-27T01:34:03.150Z,5.54
2023-02-27T01:36:26.346Z,5.07
2023-02-27T01:38:47.507Z,3.94
2023-02-27T01:40:50.454Z,3.05
2023-02-27T01:43:08.433Z,2.39
2023-02-27T01:45:29.223Z,1.97
2023-02-27T01:47:42.052Z,3.20
2023-02-27T01:49:59.299Z,5.08
2023-02-27T01:52:13.591Z,5.66
2023-02-27T01:54:27.545Z,4.67
2023-02-27T01:56:30.607Z,3.64
2023-02-27T01:58:27.877Z,2.91
2023-02-27T02:00:46.757Z,2.28
2023-02-27T02:02:55.636Z,2.56
2023-02-27T02:05:03.269Z,4.27
2023-02-27T02:07:09.299Z,5.75
2023-02-27T02:09:15.382Z,5.62
2023-02-27T02:11:19.950Z,4.51
2023-02-27T02:13:24.528Z,3.70
2023-02-27T02:15:26.074Z,3.00
2023-02-27T02:17:40.248Z,2.46
2023-02-27T02:19:55.862Z,3.18
2023-02-27T02:22:26.576Z,4.82
2023-02-27T02:25:00.530Z,6.09
2023-02-27T02:27:30.146Z,5.18
2023-02-27T02:29:56.067Z,3.85
2023-02-27T02:32:16.577Z,3.03
2023-02-27T02:34:47.484Z,2.65
2023-02-27T02:37:15.466Z,4.30
2023-02-27T02:39:40.030Z,6.04
2023-02-27T02:42:01.096Z,5.99
2023-02-27T02:44:14.232Z,4.82
2023-02-27T02:46:43.760Z,3.70
2023-02-27T02:48:49.467Z,2.92
2023-02-27T02:51:17.000Z,3.11
2023-02-27T02:53:37.321Z,4.91
2023-02-27T02:56:04.722Z,6.43
2023-02-27T02:58:31.786Z,5.70
2023-02-27T03:01:04.062Z,4.44
2023-02-27T03:03:42.778Z,3.45
2023-02-27T03:06:31.040Z,2.95
2023-02-27T03:09:06.574Z,4.71
2023-02-27T03:11:13.530Z,6.34
2023-02-27T03:13:38.851Z,6.07
2023-02-27T03:16:03.045Z,4.77
2023-02-27T03:18:01.650Z,3.79
2023-02-27T03:20:19.851Z,3.08
2023-02-27T03:22:09.695Z,3.87
2023-02-27T03:24:19.637Z,5.32
2023-02-27T03:26:35.528Z,6.60
2023-02-27T03:28:51.972Z,6.09
2023-02-27T03:31:10.040Z,4.91
2023-02-27T03:33:39.310Z,3.83
2023-02-27T03:35:48.389Z,3.11
2023-02-27T03:38:09.539Z,4.07
2023-02-27T03:40:50.929Z,5.85
2023-02-27T03:43:17.677Z,6.51
2023-02-27T03:45:50.735Z,5.19
2023-02-27T03:48:07.521Z,4.08
2023-02-27T03:50:29.686Z,3.22
2023-02-27T03:52:55.633Z,4.08
2023-02-27T03:55:24.082Z,5.85
2023-02-27T03:57:49.333Z,6.62
2023-02-27T04:00:04.022Z,5.42
2023-02-27T04:15:02.718Z,5.81
2023-02-27T04:17:24.585Z,4.68
2023-02-27T04:19:57.759Z,3.66
2023-02-27T04:22:36.442Z,3.55
2023-02-27T04:25:15.376Z,5.44
2023-02-27T04:27:35.284Z,6.76
2023-02-27T04:30:02.181Z,5.85
2023-02-27T04:32:31.880Z,4.56
2023-02-27T04:35:13.719Z,3.61
2023-02-27T04:37:54.739Z,3.24
2023-02-27T04:40:24.642Z,5.19
2023-02-27T04:42:21.289Z,6.60
2023-02-27T04:44:46.709Z,6.32
2023-02-27T04:47:13.539Z,4.99
2023-02-27T04:49:31.032Z,3.95
2023-02-27T04:51:54.647Z,3.22
2023-02-27T04:54:22.387Z,4.52
2023-02-27T04:56:35.330Z,6.17
2023-02-27T04:58:59.682Z,6.72
2023-02-27T05:01:23.066Z,5.66
2023-02-27T05:03:32.692Z,4.54
2023-02-27T05:05:58.133Z,3.65
2023-02-27T05:08:09.144Z,3.77
2023-02-27T05:10:44.857Z,5.35
2023-02-27T05:13:22.481Z,6.79
2023-02-27T05:15:46.734Z,5.94
2023-02-27T05:18:13.875Z,4.59
2023-02-27T05:20:32.700Z,3.69
2023-02-27T05:23:13.576Z,3.22
2023-02-27T05:25:32.643Z,4.78
2023-02-27T05:27:59.351Z,6.48
2023-02-27T05:30:35.573Z,6.42
2023-02-27T05:32:55.732Z,4.98
2023-02-27T05:35:36.487Z,3.98
2023-02-27T05:37:46.085Z,3.30
2023-02-27T05:40:12.783Z,4.47
2023-02-27T05:42:38.310Z,6.22
2023-02-27T05:44:54.911Z,6.60
2023-02-27T05:47:21.080Z,5.43
2023-02-27T05:49:47.743Z,4.35
2023-02-27T05:52:03.747Z,3.40
2023-02-27T05:54:34.913Z,3.54
2023-02-27T05:56:51.608Z,5.27
2023-02-27T05:59:22.299Z,6.65
2023-02-27T06:01:33.005Z,6.00
2023-02-27T06:03:58.895Z,4.66
2023-02-27T06:06:15.409Z,3.68
2023-02-27T06:08:32.376Z,3.40
2023-02-27T06:10:59.452Z,5.03
2023-02-27T06:13:13.710Z,6.60
2023-02-27T06:15:32.556Z,6.32
2023-02-27T06:17:59.594Z,5.03
2023-02-27T06:20:26.358Z,3.97
2023-02-27T06:22:39.642Z,3.52
2023-02-27T06:24:59.118Z,4.95
2023-02-27T06:27:21.758Z,6.63
2023-02-27T06:29:47.999Z,6.43
2023-02-27T06:32:15.780Z,5.14
2023-02-27T06:34:32.625Z,4.11
2023-02-27T06:36:52.168Z,3.31
2023-02-27T06:39:18.299Z,4.06
2023-02-27T06:41:04.634Z,5.82
2023-02-27T06:43:30.927Z,6.87
2023-02-27T06:45:36.510Z,6.11
2023-02-27T06:48:11.716Z,5.02
2023-02-27T06:50:48.477Z,3.95
2023-02-27T06:53:10.409Z,3.37
2023-02-27T06:55:26.443Z,4.60
2023-02-27T06:57:51.260Z,6.39
2023-02-27T07:00:17.317Z,6.54
2023-02-27T07:02:41.189Z,5.36
2023-02-27T07:05:09.336Z,4.14
2023-02-27T07:07:40.937Z,3.31
2023-02-27T07:09:58.694Z,3.63
2023-02-27T07:12:25.660Z,5.48
2023-02-27T07:14:44.391Z,6.86
2023-02-27T07:17:10.988Z,6.10
2023-02-27T07:19:15.863Z,4.87
2023-02-27T07:21:42.409Z,3.97
2023-02-27T07:24:06.615Z,3.26
2023-02-27T07:26:28.933Z,4.31
2023-02-27T07:29:00.713Z,6.08
2023-02-27T07:31:07.431Z,6.36
2023-02-27T07:33:41.672Z,5.30
2023-02-27T07:36:16.565Z,4.11
2023-02-27T07:38:22.322Z,3.38
2023-02-27T07:40:48.443Z,3.69
2023-02-27T07:43:14.949Z,5.58
2023-02-27T07:45:41.689Z,6.70
2023-02-27T07:48:08.128Z,5.69
2023-02-27T07:50:32.634Z,4.53
2023-02-27T07:52:46.716Z,3.70
2023-02-27T07:55:15.371Z,2.90
2023-02-27T07:57:33.526Z,3.48
2023-02-27T07:59:51.477Z,5.38
2023-02-27T08:02:01.283Z,6.43
2023-02-27T08:04:18.427Z,5.65
2023-02-27T08:06:32.729Z,4.66
2023-02-27T08:08:47.321Z,3.80
2023-02-27T08:11:03.824Z,3.09
2023-02-27T08:15:54.284Z,5.50
2023-02-27T08:18:08.920Z,6.49
2023-02-27T08:20:24.595Z,5.76
2023-02-27T08:22:40.854Z,4.75
2023-02-27T08:25:16.103Z,3.79
2023-02-27T08:27:16.056Z,3.17
2023-02-27T08:29:51.045Z,2.72
2023-02-27T08:32:17.119Z,2.25
2023-02-27T08:34:30.157Z,1.92
2023-02-27T08:36:57.403Z,1.67
2023-02-27T08:39:24.171Z,2.64
2023-02-27T08:41:25.340Z,4.70
2023-02-27T08:43:51.753Z,5.54
2023-02-27T08:46:18.911Z,4.73
2023-02-27T08:48:32.531Z,3.87
2023-02-27T08:50:47.233Z,3.11
2023-02-27T08:53:06.701Z,2.59
2023-02-27T08:55:33.410Z,2.12
2023-02-27T08:57:59.280Z,1.76
2023-02-27T09:00:21.890Z,1.52
2023-02-27T09:02:33.727Z,1.29
2023-02-27T09:04:59.334Z,1.08
2023-02-27T09:07:33.953Z,0.88
2023-02-27T09:09:20.673Z,0.76
2023-02-27T09:11:49.086Z,0.70
2023-02-27T09:17:03.710Z,0.64
2023-02-27T09:19:28.113Z,0.66
2023-02-27T09:21:33.105Z,0.69
2023-02-27T09:24:19.159Z,0.74
2023-02-27T09:26:44.295Z,0.74
2023-02-27T09:29:01.820Z,0.73
2023-02-27T09:31:18.230Z,0.72
2023-02-27T09:33:32.405Z,0.74
2023-02-27T09:35:58.706Z,0.80
2023-02-27T09:38:12.736Z,0.86
2023-02-27T09:40:41.045Z,0.91
2023-02-27T09:43:09.987Z,1.02
2023-02-27T09:45:39.151Z,1.15
2023-02-27T09:48:14.222Z,1.24
2023-02-27T09:50:47.327Z,1.26
2023-02-27T09:53:14.383Z,1.24
2023-02-27T09:55:33.549Z,1.22
2023-02-27T09:58:06.732Z,1.22
2023-02-27T10:00:26.621Z,1.27
2023-02-27T10:03:04.071Z,1.34
2023-02-27T10:05:27.615Z,1.48
2023-02-27T10:08:09.516Z,1.59
2023-02-27T10:10:24.981Z,1.67
2023-02-27T10:12:53.458Z,1.69
2023-02-27T10:15:31.059Z,1.67
2023-02-27T10:17:10.778Z,1.61
2023-02-27T10:19:14.518Z,1.53
2023-02-27T10:21:31.154Z,1.48
2023-02-27T10:23:57.189Z,1.38
2023-02-27T10:26:10.053Z,1.29
2023-02-27T10:27:44.105Z,1.23
2023-02-27T10:30:12.945Z,1.21
2023-02-27T10:33:55.884Z,1.32
2023-02-27T10:35:45.783Z,1.43
2023-02-27T10:37:16.382Z,1.55
2023-02-27T10:39:03.751Z,1.69
2023-02-27T10:40:35.334Z,1.81
2023-02-27T10:42:15.842Z,1.86
2023-02-27T10:44:42.680Z,1.90
2023-02-27T10:46:51.351Z,1.91
2023-02-27T10:49:13.558Z,1.93
2023-02-27T10:51:44.545Z,1.94
2023-02-27T10:54:13.882Z,1.90
2023-02-27T10:56:20.625Z,1.84
2023-02-27T10:58:28.783Z,1.79
2023-02-27T11:00:38.932Z,1.72
2023-02-27T11:02:51.542Z,1.62
2023-02-27T11:05:34.768Z,1.54
2023-02-27T11:07:49.104Z,1.58
2023-02-27T11:10:04.668Z,1.59
2023-02-27T11:12:21.186Z,1.60
2023-02-27T11:14:25.225Z,1.61
2023-02-27T11:16:32.477Z,1.66
2023-02-27T11:18:57.849Z,1.79
2023-02-27T11:21:24.223Z,1.94
2023-02-27T11:23:00.653Z,2.20
2023-02-27T11:25:15.179Z,2.50
2023-02-27T11:27:26.256Z,2.82
2023-02-27T11:29:48.093Z,3.10
2023-02-27T11:32:09.825Z,3.17
2023-02-27T11:34:09.461Z,3.10
2023-02-27T11:36:23.894Z,2.94
2023-02-27T11:38:36.665Z,2.77
2023-02-27T11:40:56.207Z,2.62
2023-02-27T11:43:02.247Z,2.51
2023-02-27T11:46:10.350Z,2.42
2023-02-27T11:48:01.305Z,2.33
2023-02-27T11:50:31.400Z,2.28
2023-02-27T11:52:58.313Z,2.28
2023-02-27T11:55:27.902Z,2.36
2023-02-27T11:57:54.535Z,2.62
2023-02-27T12:00:38.706Z,2.80
2023-02-27T12:03:04.837Z,2.95
2023-02-27T12:05:48.168Z,3.31
2023-02-27T12:08:14.380Z,3.76
2023-02-27T12:10:41.842Z,4.22
2023-02-27T12:12:49.350Z,4.54
2023-02-27T12:15:15.348Z,4.68
2023-02-27T12:17:38.471Z,4.67
2023-02-27T12:20:01.277Z,4.42
2023-02-27T12:22:32.004Z,4.07
2023-02-27T12:25:08.228Z,3.66
2023-02-27T12:27:36.422Z,3.26
2023-02-27T12:29:54.361Z,2.95
2023-02-27T12:32:25.394Z,2.71
2023-02-27T12:34:48.245Z,2.64
2023-02-27T12:37:02.733Z,2.68
2023-02-27T12:39:28.596Z,2.75
2023-02-27T12:41:23.244Z,2.88
2023-02-27T12:43:44.257Z,2.88
2023-02-27T12:46:21.303Z,2.76
2023-02-27T12:49:09.099Z,2.60
2023-02-27T12:51:41.586Z,2.48
2023-02-27T12:54:00.190Z,2.40
2023-02-27T12:56:01.940Z,2.30
2023-02-27T12:58:42.788Z,2.22
2023-02-27T13:01:03.342Z,2.14
2023-02-27T13:03:36.232Z,2.09
2023-02-27T13:06:11.540Z,2.07
2023-02-27T13:08:38.819Z,2.03
2023-02-27T13:10:51.264Z,1.91
2023-02-27T13:13:36.808Z,1.77
2023-02-27T13:16:05.903Z,1.59
2023-02-27T13:18:49.533Z,1.49
2023-02-27T13:21:06.649Z,1.42
2023-02-27T13:23:48.146Z,1.36
2023-02-27T13:26:00.241Z,1.31
2023-02-27T13:28:23.821Z,1.28
2023-02-27T13:30:33.133Z,1.27
2023-02-27T13:33:05.139Z,1.25
2023-02-27T13:35:25.815Z,1.23
2023-02-27T13:37:55.190Z,1.21
2023-02-27T13:40:09.420Z,1.19
2023-02-27T13:42:34.018Z,1.13
2023-02-27T13:47:17.266Z,1.02
2023-02-27T13:48:53.707Z,0.99
2023-02-27T13:51:20.215Z,0.98
2023-02-27T13:53:28.043Z,0.97
2023-02-27T13:55:35.328Z,0.94
2023-02-27T13:57:53.831Z,0.90
2023-02-27T14:00:13.254Z,0.86
2023-02-27T14:02:46.600Z,0.82
2023-02-27T14:04:58.967Z,0.79
2023-02-27T14:07:02.399Z,0.78
2023-02-27T14:09:14.346Z,0.78
2023-02-27T14:11:40.045Z,0.80
2023-02-27T14:14:18.493Z,0.81
2023-02-27T14:16:31.371Z,0.80
2023-02-27T14:18:34.262Z,0.79
2023-02-27T14:20:40.653Z,0.80
2023-02-27T14:23:05.029Z,0.79
2023-02-27T14:25:28.865Z,0.76
2023-02-27T14:27:36.869Z,0.72
2023-02-27T14:29:36.268Z,0.69
2023-02-27T14:31:51.048Z,0.67
2023-02-27T14:34:05.693Z,0.63
2023-02-27T14:36:16.244Z,0.60
2023-02-27T14:38:41.067Z,0.56
2023-02-27T14:41:10.463Z,0.54
2023-02-27T14:44:07.062Z,0.53
2023-02-27T14:46:29.447Z,0.50
2023-02-27T14:48:38.171Z,0.49
2023-02-27T14:51:04.150Z,0.49
2023-02-27T14:53:23.952Z,0.46
2023-02-27T14:55:30.116Z,0.43
2023-02-27T14:57:55.885Z,0.40
2023-02-27T15:00:11.465Z,0.37
2023-02-27T15:02:27.927Z,0.34
2023-02-27T15:04:01.416Z,0.31
2023-02-27T15:06:09.664Z,0.30
2023-02-27T15:08:07.623Z,0.29
2023-02-27T15:10:33.108Z,0.29
2023-02-27T15:12:38.675Z,0.28
2023-02-27T15:14:39.534Z,0.27
2023-02-27T15:17:12.346Z,0.28
2023-02-27T15:19:15.523Z,0.27
2023-02-27T15:21:29.671Z,0.26
2023-02-27T15:23:22.679Z,0.27
2023-02-27T15:26:00.427Z,0.26
2023-02-27T15:28:26.454Z,0.26
2023-02-27T15:30:43.689Z,0.24
2023-02-27T15:32:50.728Z,0.24
2023-02-27T15:35:17.493Z,0.23
2023-02-27T15:37:25.148Z,0.21
2023-02-27T15:39:47.149Z,0.20
2023-02-27T15:41:52.631Z,0.20
2023-02-27T15:43:56.938Z,0.19
2023-02-27T15:46:11.694Z,0.19
2023-02-27T15:48:37.874Z,0.18
2023-02-27T15:51:01.489Z,0.17
2023-02-27T15:53:35.653Z,0.16
2023-02-27T15:55:42.239Z,0.15
2023-02-27T15:58:16.660Z,0.15
2023-02-27T16:00:21.254Z,0.14
2023-02-27T16:02:37.317Z,0.13
2023-02-27T16:05:06.053Z,0.13
2023-02-27T16:07:18.867Z,0.14
2023-02-27T16:09:20.680Z,0.15
2023-02-27T16:11:49.491Z,0.15
2023-02-27T16:14:40.217Z,0.14
2023-02-27T16:17:03.528Z,0.13
2023-02-27T16:19:38.694Z,0.12
2023-02-27T16:22:08.021Z,0.11
2023-02-27T16:24:51.008Z,0.09
2023-02-27T16:27:17.184Z,0.08
2023-02-27T16:29:28.341Z,0.06
2023-02-27T16:31:57.084Z,0.05
2023-02-27T16:34:42.687Z,0.04
2023-02-27T16:36:57.518Z,0.04
2023-02-27T16:39:11.638Z,0.03
2023-02-27T16:41:27.809Z,0.02
2023-02-27T16:43:51.393Z,0.02
2023-02-27T16:46:08.641Z,0.02
2023-02-27T16:48:32.407Z,0.03
2023-02-27T16:50:53.277Z,0.03
2023-02-27T16:52:59.609Z,0.02
2023-02-27T16:54:31.863Z,0.02
2023-02-27T16:56:55.641Z,0.02
2023-02-27T16:58:59.581Z,0.02
2023-02-27T17:01:14.116Z,0.02
2023-02-27T17:02:51.680Z,0.01
2023-02-27T17:05:10.099Z,0.01
2023-02-27T17:07:25.113Z,0.55
2023-02-27T17:09:51.364Z,2.86
2023-02-27T17:12:20.159Z,4.13
2023-02-27T17:14:32.264Z,3.55
2023-02-27T17:16:47.677Z,2.83
2023-02-27T17:19:04.611Z,2.39
2023-02-27T17:20:52.332Z,2.05
2023-02-27T17:23:18.573Z,1.82
2023-02-27T17:25:44.125Z,1.58
2023-02-27T17:27:58.800Z,1.37
2023-02-27T17:30:34.700Z,1.22
2023-02-27T17:32:33.817Z,1.07
2023-02-27T17:35:08.697Z,0.97
2023-02-27T17:37:41.691Z,0.85
2023-02-27T17:39:57.457Z,0.75
2023-02-27T17:42:19.328Z,0.67
2023-02-27T17:44:32.906Z,0.60
2023-02-27T17:46:25.324Z,0.55
2023-02-27T17:48:40.983Z,0.51
2023-02-27T17:51:04.604Z,1.14
2023-02-27T17:53:16.721Z,3.39
2023-02-27T17:55:22.177Z,4.07
2023-02-27T17:57:19.035Z,3.54
2023-02-27T17:59:04.256Z,2.96
2023-02-27T18:01:37.311Z,2.50
2023-02-27T18:03:46.632Z,2.10
2023-02-27T18:06:02.514Z,1.79
2023-02-27T18:08:20.652Z,1.56
2023-02-27T18:10:06.148Z,1.38
2023-02-27T18:12:32.466Z,1.23
2023-02-27T18:14:47.718Z,1.06
2023-02-27T18:17:02.545Z,0.93
2023-02-27T18:19:18.292Z,0.79
2023-02-27T18:21:35.324Z,0.69
2023-02-27T18:23:51.545Z,0.58
2023-02-27T18:26:06.406Z,0.48
2023-02-27T18:28:17.440Z,0.41
2023-02-27T18:30:00.705Z,0.35
2023-02-27T18:31:40.746Z,0.29
2023-02-27T18:33:42.616Z,0.25
2023-02-27T18:35:22.774Z,0.20
2023-02-27T18:37:25.751Z,0.16
2023-02-27T18:39:32.163Z,0.11
2023-02-27T18:41:31.683Z,0.89
2023-02-27T18:43:20.010Z,2.64
2023-02-27T18:45:17.008Z,3.94
2023-02-27T18:47:07.336Z,3.77
2023-02-27T18:49:12.521Z,3.17
2023-02-27T18:51:12.162Z,2.59
2023-02-27T18:53:32.669Z,2.15
2023-02-27T18:55:37.156Z,1.80
2023-02-27T18:58:01.761Z,1.53
2023-02-27T19:00:10.880Z,1.26
2023-02-27T19:02:37.927Z,1.07
2023-02-27T19:05:06.136Z,0.89
2023-02-27T19:07:09.573Z,0.73
2023-02-27T19:09:32.876Z,0.60
2023-02-27T19:11:32.929Z,0.46
2023-02-27T19:13:09.450Z,0.37
2023-02-27T19:15:15.235Z,0.28
2023-02-27T19:17:03.851Z,0.20
2023-02-27T19:19:12.348Z,0.12
2023-02-27T19:21:16.909Z,0.05
2023-02-27T19:23:38.984Z,-0.02
2023-02-27T19:25:53.704Z,-0.07
2023-02-27T19:28:10.412Z,-0.15
2023-02-27T19:30:14.535Z,-0.22
2023-02-27T19:32:24.206Z,-0.28
2023-02-27T19:34:21.069Z,-0.32
2023-02-27T19:36:37.757Z,-0.36
2023-02-27T19:38:42.526Z,-0.40
2023-02-27T19:40:55.212Z,-0.44
2023-02-27T19:43:09.934Z,-0.47
2023-02-27T19:44:56.039Z,-0.50
2023-02-27T19:47:03.264Z,-0.53
2023-02-27T19:49:18.102Z,-0.57
2023-02-27T19:51:10.786Z,-0.61
2023-02-27T19:53:37.262Z,-0.64
2023-02-27T19:55:43.548Z,-0.70
2023-02-27T19:57:48.325Z,-0.74
2023-02-27T20:00:01.034Z,-0.79
2023-02-27T20:02:03.000Z,-0.84
2023-02-27T20:03:56.055Z,-0.74
2023-02-27T20:06:11.470Z,0.81
2023-02-27T20:08:28.489Z,2.79
2023-02-27T20:10:39.437Z,2.98
2023-02-27T20:12:24.520Z,2.31
2023-02-27T20:14:02.864Z,1.78
2023-02-27T20:16:17.267Z,1.38
2023-02-27T20:18:32.705Z,0.98
2023-02-27T20:20:45.329Z,0.66
2023-02-27T20:25:00.046Z,0.21
2023-02-27T20:26:45.344Z,0.03
2023-02-27T20:28:32.251Z,-0.09
2023-02-27T20:30:40.240Z,-0.23
2023-02-27T20:32:53.625Z,-0.38
2023-02-27T20:35:19.307Z,-0.55
2023-02-27T20:37:35.704Z,-0.71
2023-02-27T20:39:51.310Z,-0.84
2023-02-27T20:41:55.418Z,-0.33
2023-02-27T20:44:10.974Z,1.54
2023-02-27T20:46:07.389Z,3.20
2023-02-27T20:48:33.377Z,2.91
2023-02-27T20:50:36.111Z,2.09
2023-02-27T20:53:02.270Z,1.41
2023-02-27T20:54:51.145Z,0.92
2023-02-27T20:56:43.276Z,0.62
2023-02-27T20:58:05.598Z,0.35
2023-02-27T21:00:32.005Z,0.17
2023-02-27T21:02:37.107Z,-0.07
2023-02-27T21:05:02.763Z,-0.28
2023-02-27T21:07:14.621Z,-0.50
2023-02-27T21:09:13.006Z,-0.64
2023-02-27T21:11:33.033Z,-0.51
2023-02-27T21:13:52.080Z,1.45
2023-02-27T21:16:18.432Z,3.21
2023-02-27T21:18:33.272Z,2.77
2023-02-27T21:20:38.134Z,1.97
2023-02-27T21:25:25.165Z,0.86
2023-02-27T21:27:39.468Z,0.56
2023-02-27T21:30:13.995Z,0.26
2023-02-27T21:32:19.109Z,-0.01
2023-02-27T21:34:31.487Z,-0.20
2023-02-27T21:36:28.997Z,-0.39
2023-02-27T21:38:54.605Z,-0.57
2023-02-27T21:41:11.710Z,-0.76
2023-02-27T21:43:26.864Z,-0.92
2023-02-27T21:45:50.097Z,-0.64
2023-02-27T21:48:04.828Z,1.47
2023-02-27T21:50:22.262Z,3.00
2023-02-27T21:52:39.238Z,2.50
2023-02-27T21:55:05.895Z,1.67
2023-02-27T21:57:16.433Z,1.05
2023-02-27T21:59:44.069Z,0.56
2023-02-27T22:01:42.145Z,0.18
2023-02-27T22:04:08.318Z,-0.07
2023-02-27T22:06:04.644Z,-0.33
2023-02-27T22:08:20.377Z,-0.56
2023-02-27T22:10:36.421Z,-0.78
2023-02-27T22:12:51.405Z,-0.97
2023-02-27T22:15:13.460Z,-1.12
2023-02-27T22:17:13.537Z,0.06
2023-02-27T22:19:19.921Z,2.23
2023-02-27T22:21:46.002Z,2.81
2023-02-27T22:24:00.537Z,1.98
2023-02-27T22:26:16.985Z,1.19
2023-02-27T22:28:29.782Z,0.58
2023-02-27T22:30:32.740Z,0.19
2023-02-27T22:32:35.366Z,-0.10
2023-02-27T22:35:01.326Z,-0.37
2023-02-27T22:37:06.603Z,-0.61
2023-02-27T22:39:25.630Z,-0.83
2023-02-27T22:41:51.069Z,-1.03
2023-02-27T22:44:05.454Z,-1.18
2023-02-27T22:46:32.119Z,0.06
2023-02-27T22:49:14.312Z,2.71
2023-02-27T22:51:34.442Z,2.80
2023-02-27T22:53:53.098Z,1.92
2023-02-27T22:56:03.296Z,1.22
2023-02-27T22:58:29.728Z,0.71
2023-02-27T23:00:43.744Z,0.29
2023-02-27T23:03:06.221Z,-0.01
2023-02-27T23:05:12.020Z,-0.27
2023-02-27T23:07:38.102Z,-0.46
2023-02-27T23:09:54.502Z,-0.56
2023-02-27T23:12:13.799Z,0.96
2023-02-27T23:14:30.161Z,3.08
2023-02-27T23:16:46.768Z,3.00
2023-02-27T23:18:45.867Z,2.11
2023-02-27T23:21:25.040Z,1.28
2023-02-27T23:23:10.130Z,0.89
2023-02-27T23:25:01.316Z,0.59
2023-02-27T23:26:48.276Z,0.33
2023-02-27T23:28:17.247Z,0.13
2023-02-27T23:29:53.172Z,-0.03
2023-02-27T23:31:48.321Z,-0.18
2023-02-27T23:33:24.232Z,-0.32
2023-02-27T23:35:04.507Z,-0.48
2023-02-27T23:36:41.060Z,-0.62
2023-02-27T23:38:10.325Z,-0.73
2023-02-27T23:39:54.113Z,-0.82
2023-02-27T23:41:32.987Z,-0.92
2023-02-27T23:43:25.734Z,-1.01
2023-02-27T23:45:23.557Z,-1.08
2023-02-27T23:47:08.442Z,-1.16
2023-02-27T23:49:03.114Z,-1.22
2023-02-27T23:50:58.121Z,-1.29
2023-02-27T23:52:28.144Z,-1.36
2023-02-27T23:54:04.487Z,-1.40
2023-02-27T23:55:59.143Z,-1.45
2023-02-27T23:57:54.149Z,-1.51
2023-02-27T23:59:30.439Z,-1.18
